sensor_id;sensor_type;location;lat;lon;timestamp;P1;durP1;ratioP1;P2;durP2;ratioP2
37545;SDS011;23389;52.484;13.572;2023-02-25T00:02:13;14.30;;;4.53;;
37545;SDS011;23389;52.484;13.572;2023-02-25T00:04:38;15.73;;;3.53;;
37545;SDS011;23389;52.484;13.572;2023-02-25T00:07:05;10.95;;;3.58;;
37545;SDS011;23389;52.484;13.572;2023-02-25T00:09:31;13.00;;;3.25;;
37545;SDS011;23389;52.484;13.572;2023-02-25T00:11:56;12.93;;;2.88;;
37545;SDS011;23389;52.484;13.572;2023-02-25T00:14:21;14.45;;;3.05;;
37545;SDS011;23389;52.484;13.572;2023-02-25T00:16:47;11.90;;;3.05;;
37545;SDS011;23389;52.484;13.572;2023-02-25T00:19:13;12.07;;;3.45;;
37545;SDS011;23389;52.484;13.572;2023-02-25T00:21:38;12.40;;;2.80;;
37545;SDS011;23389;52.484;13.572;2023-02-25T00:24:03;16.30;;;3.55;;
37545;SDS011;23389;52.484;13.572;2023-02-25T00:26:28;16.33;;;4.13;;
37545;SDS011;23389;52.484;13.572;2023-02-25T00:28:53;17.33;;;3.28;;
37545;SDS011;23389;52.484;13.572;2023-02-25T00:31:19;12.30;;;2.60;;
37545;SDS011;23389;52.484;13.572;2023-02-25T00:33:45;20.23;;;3.10;;
37545;SDS011;23389;52.484;13.572;2023-02-25T00:36:14;14.88;;;3.05;;
37545;SDS011;23389;52.484;13.572;2023-02-25T00:38:42;14.30;;;2.53;;
37545;SDS011;23389;52.484;13.572;2023-02-25T00:41:12;13.30;;;2.75;;
37545;SDS011;23389;52.484;13.572;2023-02-25T00:43:38;13.88;;;3.03;;
37545;SDS011;23389;52.484;13.572;2023-02-25T00:46:03;7.30;;;1.25;;
37545;SDS011;23389;52.484;13.572;2023-02-25T00:48:29;5.72;;;1.48;;
37545;SDS011;23389;52.484;13.572;2023-02-25T00:50:54;3.47;;;0.68;;
37545;SDS011;23389;52.484;13.572;2023-02-25T00:53:19;4.15;;;0.90;;
37545;SDS011;23389;52.484;13.572;2023-02-25T00:55:44;3.13;;;1.00;;
37545;SDS011;23389;52.484;13.572;2023-02-25T00:58:09;4.47;;;1.20;;
37545;SDS011;23389;52.484;13.572;2023-02-25T01:00:34;3.50;;;1.25;;
37545;SDS011;23389;52.484;13.572;2023-02-25T01:02:59;3.97;;;1.40;;
37545;SDS011;23389;52.484;13.572;2023-02-25T01:05:24;7.00;;;1.60;;
37545;SDS011;23389;52.484;13.572;2023-02-25T01:07:50;4.70;;;1.90;;
37545;SDS011;23389;52.484;13.572;2023-02-25T01:10:15;4.83;;;1.83;;
37545;SDS011;23389;52.484;13.572;2023-02-25T01:12:40;5.45;;;1.77;;
37545;SDS011;23389;52.484;13.572;2023-02-25T01:15:05;7.65;;;2.17;;
37545;SDS011;23389;52.484;13.572;2023-02-25T01:17:30;5.30;;;1.95;;
37545;SDS011;23389;52.484;13.572;2023-02-25T01:19:55;6.22;;;2.22;;
37545;SDS011;23389;52.484;13.572;2023-02-25T01:22:21;6.65;;;2.05;;
37545;SDS011;23389;52.484;13.572;2023-02-25T01:24:46;9.97;;;2.40;;
37545;SDS011;23389;52.484;13.572;2023-02-25T01:27:11;7.30;;;2.63;;
37545;SDS011;23389;52.484;13.572;2023-02-25T01:29:37;8.80;;;2.28;;
37545;SDS011;23389;52.484;13.572;2023-02-25T01:32:03;9.77;;;2.42;;
37545;SDS011;23389;52.484;13.572;2023-02-25T01:34:28;6.72;;;2.22;;
37545;SDS011;23389;52.484;13.572;2023-02-25T01:36:54;7.60;;;2.15;;
37545;SDS011;23389;52.484;13.572;2023-02-25T01:39:19;9.35;;;2.45;;
37545;SDS011;23389;52.484;13.572;2023-02-25T01:41:45;9.98;;;2.55;;
37545;SDS011;23389;52.484;13.572;2023-02-25T01:44:13;7.30;;;2.63;;
37545;SDS011;23389;52.484;13.572;2023-02-25T01:46:40;9.90;;;3.03;;
37545;SDS011;23389;52.484;13.572;2023-02-25T01:49:06;8.02;;;2.85;;
37545;SDS011;23389;52.484;13.572;2023-02-25T01:51:34;8.35;;;3.13;;
37545;SDS011;23389;52.484;13.572;2023-02-25T01:54:00;8.10;;;3.05;;
37545;SDS011;23389;52.484;13.572;2023-02-25T01:56:27;7.90;;;2.70;;
37545;SDS011;23389;52.484;13.572;2023-02-25T01:58:54;9.65;;;2.85;;
37545;SDS011;23389;52.484;13.572;2023-02-25T02:01:20;7.68;;;2.60;;
37545;SDS011;23389;52.484;13.572;2023-02-25T02:03:46;6.85;;;3.13;;
37545;SDS011;23389;52.484;13.572;2023-02-25T02:06:14;9.00;;;2.97;;
37545;SDS011;23389;52.484;13.572;2023-02-25T02:08:40;9.95;;;3.33;;
37545;SDS011;23389;52.484;13.572;2023-02-25T02:11:06;9.20;;;2.92;;
37545;SDS011;23389;52.484;13.572;2023-02-25T02:13:32;8.82;;;3.03;;
37545;SDS011;23389;52.484;13.572;2023-02-25T02:18:22;8.45;;;3.50;;
37545;SDS011;23389;52.484;13.572;2023-02-25T02:33:41;5.88;;;2.70;;
37545;SDS011;23389;52.484;13.572;2023-02-25T02:36:32;6.65;;;2.75;;
37545;SDS011;23389;52.484;13.572;2023-02-25T02:38:58;6.50;;;2.50;;
37545;SDS011;23389;52.484;13.572;2023-02-25T02:41:26;5.32;;;2.50;;
37545;SDS011;23389;52.484;13.572;2023-02-25T02:43:57;9.07;;;2.40;;
37545;SDS011;23389;52.484;13.572;2023-02-25T02:46:23;4.13;;;1.90;;
37545;SDS011;23389;52.484;13.572;2023-02-25T02:48:51;6.47;;;2.30;;
37545;SDS011;23389;52.484;13.572;2023-02-25T02:51:22;5.40;;;2.20;;
37545;SDS011;23389;52.484;13.572;2023-02-25T02:53:50;6.85;;;2.58;;
37545;SDS011;23389;52.484;13.572;2023-02-25T02:56:16;5.40;;;2.42;;
37545;SDS011;23389;52.484;13.572;2023-02-25T02:58:43;4.93;;;1.80;;
37545;SDS011;23389;52.484;13.572;2023-02-25T03:01:11;4.73;;;2.00;;
37545;SDS011;23389;52.484;13.572;2023-02-25T03:03:38;4.22;;;2.28;;
37545;SDS011;23389;52.484;13.572;2023-02-25T03:06:09;6.70;;;2.13;;
37545;SDS011;23389;52.484;13.572;2023-02-25T03:08:38;4.72;;;2.17;;
37545;SDS011;23389;52.484;13.572;2023-02-25T03:13:29;7.07;;;2.30;;
37545;SDS011;23389;52.484;13.572;2023-02-25T03:15:54;7.45;;;3.47;;
37545;SDS011;23389;52.484;13.572;2023-02-25T03:18:26;6.80;;;3.15;;
37545;SDS011;23389;52.484;13.572;2023-02-25T03:20:54;8.02;;;4.38;;
37545;SDS011;23389;52.484;13.572;2023-02-25T03:23:23;8.77;;;4.43;;
37545;SDS011;23389;52.484;13.572;2023-02-25T03:25:59;12.13;;;6.23;;
37545;SDS011;23389;52.484;13.572;2023-02-25T03:28:30;8.05;;;5.00;;
37545;SDS011;23389;52.484;13.572;2023-02-25T03:30:57;8.90;;;4.22;;
37545;SDS011;23389;52.484;13.572;2023-02-25T03:33:28;8.50;;;4.93;;
37545;SDS011;23389;52.484;13.572;2023-02-25T03:35:55;9.90;;;5.00;;
37545;SDS011;23389;52.484;13.572;2023-02-25T03:38:21;8.30;;;4.25;;
37545;SDS011;23389;52.484;13.572;2023-02-25T03:40:48;7.32;;;3.67;;
37545;SDS011;23389;52.484;13.572;2023-02-25T03:43:19;7.80;;;3.67;;
37545;SDS011;23389;52.484;13.572;2023-02-25T03:45:46;7.55;;;3.42;;
37545;SDS011;23389;52.484;13.572;2023-02-25T03:48:11;7.32;;;3.40;;
37545;SDS011;23389;52.484;13.572;2023-02-25T03:50:46;7.53;;;3.47;;
37545;SDS011;23389;52.484;13.572;2023-02-25T03:53:11;7.15;;;3.13;;
37545;SDS011;23389;52.484;13.572;2023-02-25T03:55:36;7.40;;;3.53;;
37545;SDS011;23389;52.484;13.572;2023-02-25T03:58:02;6.85;;;2.83;;
37545;SDS011;23389;52.484;13.572;2023-02-25T04:00:28;5.30;;;2.30;;
37545;SDS011;23389;52.484;13.572;2023-02-25T04:02:54;4.90;;;2.20;;
37545;SDS011;23389;52.484;13.572;2023-02-25T04:05:20;5.72;;;2.38;;
37545;SDS011;23389;52.484;13.572;2023-02-25T04:07:45;4.85;;;2.35;;
37545;SDS011;23389;52.484;13.572;2023-02-25T04:10:11;4.07;;;1.97;;
37545;SDS011;23389;52.484;13.572;2023-02-25T04:12:37;4.40;;;1.95;;
37545;SDS011;23389;52.484;13.572;2023-02-25T04:15:02;4.88;;;2.33;;
37545;SDS011;23389;52.484;13.572;2023-02-25T04:17:28;5.80;;;2.58;;
37545;SDS011;23389;52.484;13.572;2023-02-25T04:19:53;8.95;;;3.60;;
37545;SDS011;23389;52.484;13.572;2023-02-25T04:22:18;11.90;;;4.75;;
37545;SDS011;23389;52.484;13.572;2023-02-25T04:24:43;13.03;;;6.37;;
37545;SDS011;23389;52.484;13.572;2023-02-25T04:27:08;12.23;;;6.07;;
37545;SDS011;23389;52.484;13.572;2023-02-25T04:29:33;13.07;;;6.68;;
37545;SDS011;23389;52.484;13.572;2023-02-25T04:31:58;16.95;;;7.25;;
37545;SDS011;23389;52.484;13.572;2023-02-25T04:34:23;16.23;;;8.25;;
37545;SDS011;23389;52.484;13.572;2023-02-25T04:36:49;16.45;;;8.27;;
37545;SDS011;23389;52.484;13.572;2023-02-25T04:39:14;19.00;;;7.95;;
37545;SDS011;23389;52.484;13.572;2023-02-25T04:41:40;15.43;;;7.50;;
37545;SDS011;23389;52.484;13.572;2023-02-25T04:44:06;11.50;;;5.40;;
37545;SDS011;23389;52.484;13.572;2023-02-25T04:46:31;10.70;;;5.03;;
37545;SDS011;23389;52.484;13.572;2023-02-25T04:48:57;8.43;;;3.53;;
37545;SDS011;23389;52.484;13.572;2023-02-25T04:51:22;7.50;;;3.20;;
37545;SDS011;23389;52.484;13.572;2023-02-25T04:53:47;7.68;;;3.10;;
37545;SDS011;23389;52.484;13.572;2023-02-25T04:56:12;6.75;;;2.70;;
37545;SDS011;23389;52.484;13.572;2023-02-25T04:58:37;5.28;;;2.10;;
37545;SDS011;23389;52.484;13.572;2023-02-25T05:01:04;5.10;;;2.05;;
37545;SDS011;23389;52.484;13.572;2023-02-25T05:03:30;5.13;;;2.00;;
37545;SDS011;23389;52.484;13.572;2023-02-25T05:05:55;4.13;;;1.58;;
37545;SDS011;23389;52.484;13.572;2023-02-25T05:08:20;3.58;;;1.67;;
37545;SDS011;23389;52.484;13.572;2023-02-25T05:10:45;5.05;;;1.92;;
37545;SDS011;23389;52.484;13.572;2023-02-25T05:13:10;3.67;;;1.47;;
37545;SDS011;23389;52.484;13.572;2023-02-25T05:15:36;4.17;;;1.30;;
37545;SDS011;23389;52.484;13.572;2023-02-25T05:18:01;3.80;;;1.33;;
37545;SDS011;23389;52.484;13.572;2023-02-25T05:20:26;4.40;;;1.55;;
37545;SDS011;23389;52.484;13.572;2023-02-25T05:22:52;3.15;;;1.10;;
37545;SDS011;23389;52.484;13.572;2023-02-25T05:25:18;2.67;;;1.20;;
37545;SDS011;23389;52.484;13.572;2023-02-25T05:27:43;2.13;;;0.90;;
37545;SDS011;23389;52.484;13.572;2023-02-25T05:30:08;3.08;;;1.42;;
37545;SDS011;23389;52.484;13.572;2023-02-25T05:32:33;2.10;;;1.02;;
37545;SDS011;23389;52.484;13.572;2023-02-25T05:34:58;3.28;;;1.10;;
37545;SDS011;23389;52.484;13.572;2023-02-25T05:37:24;2.03;;;0.90;;
37545;SDS011;23389;52.484;13.572;2023-02-25T05:39:49;3.05;;;1.02;;
37545;SDS011;23389;52.484;13.572;2023-02-25T05:42:15;2.05;;;1.00;;
37545;SDS011;23389;52.484;13.572;2023-02-25T05:44:40;4.65;;;1.20;;
37545;SDS011;23389;52.484;13.572;2023-02-25T05:47:05;2.63;;;1.00;;
37545;SDS011;23389;52.484;13.572;2023-02-25T05:49:31;3.72;;;1.50;;
37545;SDS011;23389;52.484;13.572;2023-02-25T05:51:56;2.90;;;1.20;;
37545;SDS011;23389;52.484;13.572;2023-02-25T05:54:21;3.25;;;1.00;;
37545;SDS011;23389;52.484;13.572;2023-02-25T05:56:49;3.47;;;1.30;;
37545;SDS011;23389;52.484;13.572;2023-02-25T05:59:14;2.80;;;1.20;;
37545;SDS011;23389;52.484;13.572;2023-02-25T06:01:40;4.22;;;1.40;;
37545;SDS011;23389;52.484;13.572;2023-02-25T06:04:06;2.97;;;1.20;;
37545;SDS011;23389;52.484;13.572;2023-02-25T06:06:31;2.90;;;1.30;;
37545;SDS011;23389;52.484;13.572;2023-02-25T06:08:56;1.88;;;0.98;;
37545;SDS011;23389;52.484;13.572;2023-02-25T06:11:23;1.93;;;1.07;;
37545;SDS011;23389;52.484;13.572;2023-02-25T06:13:49;2.72;;;1.10;;
37545;SDS011;23389;52.484;13.572;2023-02-25T06:16:15;3.08;;;1.33;;
37545;SDS011;23389;52.484;13.572;2023-02-25T06:18:40;3.05;;;1.30;;
37545;SDS011;23389;52.484;13.572;2023-02-25T06:21:06;3.35;;;1.10;;
37545;SDS011;23389;52.484;13.572;2023-02-25T06:23:32;3.17;;;1.15;;
37545;SDS011;23389;52.484;13.572;2023-02-25T06:25:57;2.10;;;1.10;;
37545;SDS011;23389;52.484;13.572;2023-02-25T06:28:23;3.45;;;1.20;;
37545;SDS011;23389;52.484;13.572;2023-02-25T06:30:48;2.38;;;1.15;;
37545;SDS011;23389;52.484;13.572;2023-02-25T06:33:13;3.75;;;1.50;;
37545;SDS011;23389;52.484;13.572;2023-02-25T06:35:38;3.15;;;1.45;;
37545;SDS011;23389;52.484;13.572;2023-02-25T06:38:03;2.10;;;1.15;;
37545;SDS011;23389;52.484;13.572;2023-02-25T06:40:28;3.17;;;1.30;;
37545;SDS011;23389;52.484;13.572;2023-02-25T06:42:53;4.32;;;1.25;;
37545;SDS011;23389;52.484;13.572;2023-02-25T06:45:18;3.15;;;1.27;;
37545;SDS011;23389;52.484;13.572;2023-02-25T06:47:43;3.70;;;1.30;;
37545;SDS011;23389;52.484;13.572;2023-02-25T06:50:09;2.78;;;1.10;;
37545;SDS011;23389;52.484;13.572;2023-02-25T06:52:34;3.25;;;1.15;;
37545;SDS011;23389;52.484;13.572;2023-02-25T06:54:59;2.13;;;1.00;;
37545;SDS011;23389;52.484;13.572;2023-02-25T06:57:24;4.00;;;1.80;;
37545;SDS011;23389;52.484;13.572;2023-02-25T06:59:49;3.83;;;1.57;;
37545;SDS011;23389;52.484;13.572;2023-02-25T07:02:17;2.60;;;1.17;;
37545;SDS011;23389;52.484;13.572;2023-02-25T07:04:42;3.03;;;1.17;;
37545;SDS011;23389;52.484;13.572;2023-02-25T07:07:07;4.50;;;1.37;;
37545;SDS011;23389;52.484;13.572;2023-02-25T07:09:32;2.97;;;1.42;;
37545;SDS011;23389;52.484;13.572;2023-02-25T07:11:57;3.42;;;1.30;;
37545;SDS011;23389;52.484;13.572;2023-02-25T07:14:22;2.53;;;1.10;;
37545;SDS011;23389;52.484;13.572;2023-02-25T07:16:47;3.90;;;1.30;;
37545;SDS011;23389;52.484;13.572;2023-02-25T07:19:13;2.97;;;1.20;;
37545;SDS011;23389;52.484;13.572;2023-02-25T07:21:40;5.45;;;1.65;;
37545;SDS011;23389;52.484;13.572;2023-02-25T07:24:05;4.90;;;1.42;;
37545;SDS011;23389;52.484;13.572;2023-02-25T07:26:30;3.25;;;1.33;;
37545;SDS011;23389;52.484;13.572;2023-02-25T07:28:56;3.13;;;1.30;;
37545;SDS011;23389;52.484;13.572;2023-02-25T07:31:22;2.58;;;0.98;;
37545;SDS011;23389;52.484;13.572;2023-02-25T07:33:47;2.90;;;1.30;;
37545;SDS011;23389;52.484;13.572;2023-02-25T07:36:13;1.98;;;1.00;;
37545;SDS011;23389;52.484;13.572;2023-02-25T07:38:38;2.55;;;1.00;;
37545;SDS011;23389;52.484;13.572;2023-02-25T07:41:04;2.67;;;1.30;;
37545;SDS011;23389;52.484;13.572;2023-02-25T07:43:30;2.97;;;1.23;;
37545;SDS011;23389;52.484;13.572;2023-02-25T07:45:58;1.88;;;0.75;;
37545;SDS011;23389;52.484;13.572;2023-02-25T07:48:23;2.78;;;1.00;;
37545;SDS011;23389;52.484;13.572;2023-02-25T07:50:48;2.47;;;1.02;;
37545;SDS011;23389;52.484;13.572;2023-02-25T07:53:13;4.22;;;1.40;;
37545;SDS011;23389;52.484;13.572;2023-02-25T07:55:41;1.48;;;0.73;;
37545;SDS011;23389;52.484;13.572;2023-02-25T07:58:06;2.85;;;1.00;;
37545;SDS011;23389;52.484;13.572;2023-02-25T08:00:31;3.38;;;0.90;;
37545;SDS011;23389;52.484;13.572;2023-02-25T08:02:56;2.80;;;1.00;;
37545;SDS011;23389;52.484;13.572;2023-02-25T08:05:21;2.30;;;0.80;;
37545;SDS011;23389;52.484;13.572;2023-02-25T08:07:48;3.35;;;0.80;;
37545;SDS011;23389;52.484;13.572;2023-02-25T08:10:13;2.88;;;0.95;;
37545;SDS011;23389;52.484;13.572;2023-02-25T08:12:38;2.20;;;0.70;;
37545;SDS011;23389;52.484;13.572;2023-02-25T08:15:03;1.45;;;0.60;;
37545;SDS011;23389;52.484;13.572;2023-02-25T08:17:28;1.38;;;0.50;;
37545;SDS011;23389;52.484;13.572;2023-02-25T08:19:57;1.67;;;0.60;;
37545;SDS011;23389;52.484;13.572;2023-02-25T08:22:22;1.17;;;0.40;;
37545;SDS011;23389;52.484;13.572;2023-02-25T08:24:47;0.77;;;0.30;;
37545;SDS011;23389;52.484;13.572;2023-02-25T08:27:12;1.20;;;0.43;;
37545;SDS011;23389;52.484;13.572;2023-02-25T08:29:37;1.30;;;0.40;;
37545;SDS011;23389;52.484;13.572;2023-02-25T08:32:06;1.55;;;0.50;;
37545;SDS011;23389;52.484;13.572;2023-02-25T08:34:31;0.73;;;0.40;;
37545;SDS011;23389;52.484;13.572;2023-02-25T08:36:56;2.25;;;0.70;;
37545;SDS011;23389;52.484;13.572;2023-02-25T08:39:21;1.17;;;0.50;;
37545;SDS011;23389;52.484;13.572;2023-02-25T08:41:46;1.17;;;0.50;;
37545;SDS011;23389;52.484;13.572;2023-02-25T08:44:12;3.45;;;0.70;;
37545;SDS011;23389;52.484;13.572;2023-02-25T08:46:37;1.98;;;0.50;;
37545;SDS011;23389;52.484;13.572;2023-02-25T08:49:03;1.88;;;0.50;;
37545;SDS011;23389;52.484;13.572;2023-02-25T08:51:28;1.25;;;0.70;;
37545;SDS011;23389;52.484;13.572;2023-02-25T08:54:00;1.05;;;0.40;;
37545;SDS011;23389;52.484;13.572;2023-02-25T08:56:26;2.08;;;0.57;;
37545;SDS011;23389;52.484;13.572;2023-02-25T08:58:53;1.23;;;0.40;;
37545;SDS011;23389;52.484;13.572;2023-02-25T09:01:18;2.75;;;1.00;;
37545;SDS011;23389;52.484;13.572;2023-02-25T09:03:46;1.37;;;0.70;;
37545;SDS011;23389;52.484;13.572;2023-02-25T09:06:18;1.85;;;0.65;;
37545;SDS011;23389;52.484;13.572;2023-02-25T09:08:43;3.35;;;0.60;;
37545;SDS011;23389;52.484;13.572;2023-02-25T09:11:08;2.33;;;0.70;;
37545;SDS011;23389;52.484;13.572;2023-02-25T09:13:33;5.35;;;1.40;;
37545;SDS011;23389;52.484;13.572;2023-02-25T09:15:59;3.72;;;0.95;;
37545;SDS011;23389;52.484;13.572;2023-02-25T09:18:24;1.52;;;0.52;;
37545;SDS011;23389;52.484;13.572;2023-02-25T09:20:50;1.55;;;0.80;;
37545;SDS011;23389;52.484;13.572;2023-02-25T09:23:15;3.17;;;1.20;;
37545;SDS011;23389;52.484;13.572;2023-02-25T09:25:40;3.08;;;0.90;;
37545;SDS011;23389;52.484;13.572;2023-02-25T09:28:08;2.20;;;0.60;;
37545;SDS011;23389;52.484;13.572;2023-02-25T09:30:33;2.97;;;1.33;;
37545;SDS011;23389;52.484;13.572;2023-02-25T09:32:58;1.23;;;0.50;;
37545;SDS011;23389;52.484;13.572;2023-02-25T09:35:23;2.38;;;0.90;;
37545;SDS011;23389;52.484;13.572;2023-02-25T09:37:48;2.22;;;0.70;;
37545;SDS011;23389;52.484;13.572;2023-02-25T09:40:14;3.53;;;1.55;;
37545;SDS011;23389;52.484;13.572;2023-02-25T09:42:49;3.58;;;1.67;;
37545;SDS011;23389;52.484;13.572;2023-02-25T09:45:16;1.40;;;0.73;;
37545;SDS011;23389;52.484;13.572;2023-02-25T09:47:53;2.00;;;0.60;;
37545;SDS011;23389;52.484;13.572;2023-02-25T09:50:35;1.55;;;0.70;;
37545;SDS011;23389;52.484;13.572;2023-02-25T09:53:04;1.30;;;0.70;;
37545;SDS011;23389;52.484;13.572;2023-02-25T09:55:33;1.45;;;0.40;;
37545;SDS011;23389;52.484;13.572;2023-02-25T10:00:31;1.27;;;0.50;;
37545;SDS011;23389;52.484;13.572;2023-02-25T10:05:24;0.93;;;0.50;;
37545;SDS011;23389;52.484;13.572;2023-02-25T10:10:20;1.50;;;0.63;;
37545;SDS011;23389;52.484;13.572;2023-02-25T10:12:51;1.55;;;0.65;;
37545;SDS011;23389;52.484;13.572;2023-02-25T10:20:34;1.30;;;0.52;;
37545;SDS011;23389;52.484;13.572;2023-02-25T10:23:08;1.35;;;0.50;;
37545;SDS011;23389;52.484;13.572;2023-02-25T10:25:38;2.15;;;0.77;;
37545;SDS011;23389;52.484;13.572;2023-02-25T10:28:05;2.35;;;0.70;;
37545;SDS011;23389;52.484;13.572;2023-02-25T10:30:42;0.68;;;0.35;;
37545;SDS011;23389;52.484;13.572;2023-02-25T10:33:12;1.45;;;0.47;;
37545;SDS011;23389;52.484;13.572;2023-02-25T10:35:39;1.45;;;0.40;;
37545;SDS011;23389;52.484;13.572;2023-02-25T10:38:08;1.65;;;0.40;;
37545;SDS011;23389;52.484;13.572;2023-02-25T10:40:33;1.98;;;0.40;;
37545;SDS011;23389;52.484;13.572;2023-02-25T10:42:59;1.40;;;0.40;;
37545;SDS011;23389;52.484;13.572;2023-02-25T10:45:26;1.10;;;0.50;;
37545;SDS011;23389;52.484;13.572;2023-02-25T10:47:59;1.33;;;0.60;;
37545;SDS011;23389;52.484;13.572;2023-02-25T10:50:27;1.67;;;0.47;;
37545;SDS011;23389;52.484;13.572;2023-02-25T10:52:54;2.03;;;0.50;;
37545;SDS011;23389;52.484;13.572;2023-02-25T10:55:25;0.77;;;0.28;;
37545;SDS011;23389;52.484;13.572;2023-02-25T10:57:50;2.05;;;0.40;;
37545;SDS011;23389;52.484;13.572;2023-02-25T11:00:26;1.38;;;0.43;;
37545;SDS011;23389;52.484;13.572;2023-02-25T11:02:51;1.75;;;0.50;;
37545;SDS011;23389;52.484;13.572;2023-02-25T11:07:54;1.48;;;0.50;;
37545;SDS011;23389;52.484;13.572;2023-02-25T11:10:21;0.75;;;0.30;;
37545;SDS011;23389;52.484;13.572;2023-02-25T11:12:51;1.45;;;0.40;;
37545;SDS011;23389;52.484;13.572;2023-02-25T11:17:42;0.70;;;0.40;;
37545;SDS011;23389;52.484;13.572;2023-02-25T11:20:12;1.42;;;0.60;;
37545;SDS011;23389;52.484;13.572;2023-02-25T11:22:44;1.13;;;0.70;;
37545;SDS011;23389;52.484;13.572;2023-02-25T11:25:18;2.38;;;0.52;;
37545;SDS011;23389;52.484;13.572;2023-02-25T11:27:44;2.78;;;0.65;;
37545;SDS011;23389;52.484;13.572;2023-02-25T11:32:35;1.73;;;0.60;;
37545;SDS011;23389;52.484;13.572;2023-02-25T11:35:07;1.73;;;0.57;;
37545;SDS011;23389;52.484;13.572;2023-02-25T11:39:59;2.88;;;1.15;;
37545;SDS011;23389;52.484;13.572;2023-02-25T11:42:25;2.05;;;0.50;;
37545;SDS011;23389;52.484;13.572;2023-02-25T11:44:58;0.93;;;0.40;;
37545;SDS011;23389;52.484;13.572;2023-02-25T11:52:17;2.33;;;0.63;;
37545;SDS011;23389;52.484;13.572;2023-02-25T11:54:49;1.23;;;0.40;;
37545;SDS011;23389;52.484;13.572;2023-02-25T12:00:05;1.98;;;0.82;;
37545;SDS011;23389;52.484;13.572;2023-02-25T12:02:44;0.55;;;0.30;;
37545;SDS011;23389;52.484;13.572;2023-02-25T12:07:53;1.58;;;0.70;;
37545;SDS011;23389;52.484;13.572;2023-02-25T12:10:26;2.05;;;0.80;;
37545;SDS011;23389;52.484;13.572;2023-02-25T12:18:13;1.73;;;0.60;;
37545;SDS011;23389;52.484;13.572;2023-02-25T12:23:36;1.50;;;0.70;;
37545;SDS011;23389;52.484;13.572;2023-02-25T12:26:05;2.00;;;0.70;;
37545;SDS011;23389;52.484;13.572;2023-02-25T12:28:35;1.90;;;0.60;;
37545;SDS011;23389;52.484;13.572;2023-02-25T12:31:15;1.50;;;0.60;;
37545;SDS011;23389;52.484;13.572;2023-02-25T12:33:47;1.38;;;0.60;;
37545;SDS011;23389;52.484;13.572;2023-02-25T12:36:28;1.73;;;0.65;;
37545;SDS011;23389;52.484;13.572;2023-02-25T12:44:37;3.22;;;0.63;;
37545;SDS011;23389;52.484;13.572;2023-02-25T12:47:10;2.88;;;1.00;;
37545;SDS011;23389;52.484;13.572;2023-02-25T12:49:59;2.00;;;0.85;;
37545;SDS011;23389;52.484;13.572;2023-02-25T13:00:29;0.85;;;0.47;;
37545;SDS011;23389;52.484;13.572;2023-02-25T13:03:08;3.83;;;0.90;;
37545;SDS011;23389;52.484;13.572;2023-02-25T13:05:46;2.60;;;0.82;;
37545;SDS011;23389;52.484;13.572;2023-02-25T13:16:36;1.65;;;0.60;;
37545;SDS011;23389;52.484;13.572;2023-02-25T13:19:22;2.30;;;0.68;;
37545;SDS011;23389;52.484;13.572;2023-02-25T13:22:02;2.67;;;0.90;;
37545;SDS011;23389;52.484;13.572;2023-02-25T13:32:40;2.53;;;0.85;;
37545;SDS011;23389;52.484;13.572;2023-02-25T13:40:34;2.15;;;0.80;;
37545;SDS011;23389;52.484;13.572;2023-02-25T13:43:20;2.95;;;0.80;;
37545;SDS011;23389;52.484;13.572;2023-02-25T13:46:01;1.75;;;0.60;;
37545;SDS011;23389;52.484;13.572;2023-02-25T13:49:15;2.58;;;0.98;;
37545;SDS011;23389;52.484;13.572;2023-02-25T13:51:30;1.92;;;0.50;;
37545;SDS011;23389;52.484;13.572;2023-02-25T14:06:50;2.53;;;0.85;;
37545;SDS011;23389;52.484;13.572;2023-02-25T14:15:00;3.25;;;0.60;;
37545;SDS011;23389;52.484;13.572;2023-02-25T14:17:33;3.20;;;0.77;;
37545;SDS011;23389;52.484;13.572;2023-02-25T14:25:04;1.40;;;0.60;;
37545;SDS011;23389;52.484;13.572;2023-02-25T14:27:35;3.95;;;1.02;;
37545;SDS011;23389;52.484;13.572;2023-02-25T14:37:52;2.83;;;0.95;;
37545;SDS011;23389;52.484;13.572;2023-02-25T14:40:38;2.20;;;0.82;;
37545;SDS011;23389;52.484;13.572;2023-02-25T14:43:14;3.20;;;0.95;;
37545;SDS011;23389;52.484;13.572;2023-02-25T14:45:45;2.28;;;0.55;;
37545;SDS011;23389;52.484;13.572;2023-02-25T14:48:29;1.87;;;0.50;;
37545;SDS011;23389;52.484;13.572;2023-02-25T14:51:22;3.65;;;0.70;;
37545;SDS011;23389;52.484;13.572;2023-02-25T14:59:13;1.97;;;0.60;;
37545;SDS011;23389;52.484;13.572;2023-02-25T15:01:51;1.65;;;0.50;;
37545;SDS011;23389;52.484;13.572;2023-02-25T15:04:43;1.10;;;0.50;;
37545;SDS011;23389;52.484;13.572;2023-02-25T15:12:21;2.78;;;1.00;;
37545;SDS011;23389;52.484;13.572;2023-02-25T15:14:54;1.75;;;0.70;;
37545;SDS011;23389;52.484;13.572;2023-02-25T15:20:15;2.17;;;0.80;;
37545;SDS011;23389;52.484;13.572;2023-02-25T15:25:33;2.60;;;0.95;;
37545;SDS011;23389;52.484;13.572;2023-02-25T15:27:59;2.70;;;0.90;;
37545;SDS011;23389;52.484;13.572;2023-02-25T15:30:26;3.08;;;1.23;;
37545;SDS011;23389;52.484;13.572;2023-02-25T15:33:21;3.63;;;0.80;;
37545;SDS011;23389;52.484;13.572;2023-02-25T15:40:57;1.48;;;0.52;;
37545;SDS011;23389;52.484;13.572;2023-02-25T15:43:37;1.55;;;0.40;;
37545;SDS011;23389;52.484;13.572;2023-02-25T15:48:32;2.70;;;0.80;;
37545;SDS011;23389;52.484;13.572;2023-02-25T15:50:58;2.05;;;0.70;;
37545;SDS011;23389;52.484;13.572;2023-02-25T15:56:21;2.30;;;0.68;;
37545;SDS011;23389;52.484;13.572;2023-02-25T15:59:11;2.30;;;0.80;;
37545;SDS011;23389;52.484;13.572;2023-02-25T16:01:36;2.22;;;0.80;;
37545;SDS011;23389;52.484;13.572;2023-02-25T16:04:06;1.85;;;0.68;;
37545;SDS011;23389;52.484;13.572;2023-02-25T16:06:39;2.83;;;0.77;;
37545;SDS011;23389;52.484;13.572;2023-02-25T16:09:05;2.57;;;0.57;;
37545;SDS011;23389;52.484;13.572;2023-02-25T16:11:41;2.08;;;0.75;;
37545;SDS011;23389;52.484;13.572;2023-02-25T16:14:13;2.67;;;0.60;;
37545;SDS011;23389;52.484;13.572;2023-02-25T16:16:43;3.33;;;0.90;;
37545;SDS011;23389;52.484;13.572;2023-02-25T16:19:10;2.13;;;0.70;;
37545;SDS011;23389;52.484;13.572;2023-02-25T16:21:42;5.38;;;1.10;;
37545;SDS011;23389;52.484;13.572;2023-02-25T16:24:09;1.13;;;0.60;;
37545;SDS011;23389;52.484;13.572;2023-02-25T16:26:40;1.77;;;0.60;;
37545;SDS011;23389;52.484;13.572;2023-02-25T16:29:19;2.67;;;1.00;;
37545;SDS011;23389;52.484;13.572;2023-02-25T16:32:01;4.00;;;1.35;;
37545;SDS011;23389;52.484;13.572;2023-02-25T16:37:03;2.83;;;1.00;;
37545;SDS011;23389;52.484;13.572;2023-02-25T16:39:29;4.80;;;1.27;;
37545;SDS011;23389;52.484;13.572;2023-02-25T16:41:55;4.03;;;1.70;;
37545;SDS011;23389;52.484;13.572;2023-02-25T16:44:27;2.80;;;1.00;;
37545;SDS011;23389;52.484;13.572;2023-02-25T16:49:21;3.92;;;1.02;;
37545;SDS011;23389;52.484;13.572;2023-02-25T16:51:48;4.68;;;1.90;;
37545;SDS011;23389;52.484;13.572;2023-02-25T16:54:59;4.53;;;1.25;;
37545;SDS011;23389;52.484;13.572;2023-02-25T16:57:05;4.10;;;1.33;;
37545;SDS011;23389;52.484;13.572;2023-02-25T16:59:31;4.03;;;1.88;;
37545;SDS011;23389;52.484;13.572;2023-02-25T17:01:58;6.88;;;2.38;;
37545;SDS011;23389;52.484;13.572;2023-02-25T17:04:26;5.18;;;1.52;;
37545;SDS011;23389;52.484;13.572;2023-02-25T17:07:11;4.38;;;1.20;;
37545;SDS011;23389;52.484;13.572;2023-02-25T17:09:46;6.45;;;1.42;;
37545;SDS011;23389;52.484;13.572;2023-02-25T17:12:14;5.32;;;2.20;;
37545;SDS011;23389;52.484;13.572;2023-02-25T17:14:42;4.97;;;1.90;;
37545;SDS011;23389;52.484;13.572;2023-02-25T17:17:13;5.47;;;2.03;;